createdAt,value
2022-07-25T00:01:24.340Z,22.42
2022-07-25T00:03:51.118Z,22.47
2022-07-25T00:06:18.148Z,22.30
2022-07-25T00:08:45.018Z,22.22
2022-07-25T00:11:11.661Z,22.23
2022-07-25T00:13:38.376Z,22.23
2022-07-25T00:16:05.568Z,22.28
2022-07-25T00:18:32.337Z,22.20
2022-07-25T00:20:59.029Z,22.01
2022-07-25T00:23:25.737Z,21.91
2022-07-25T00:25:52.474Z,21.99
2022-07-25T00:28:19.111Z,21.77
2022-07-25T00:30:45.820Z,21.76
2022-07-25T00:33:12.530Z,21.77
2022-07-25T00:35:39.216Z,21.70
2022-07-25T00:38:05.862Z,21.58
2022-07-25T00:40:32.613Z,21.51
2022-07-25T00:42:59.302Z,21.37
2022-07-25T00:45:26.106Z,21.38
2022-07-25T00:47:52.765Z,21.42
2022-07-25T00:50:19.644Z,21.39
2022-07-25T00:52:46.421Z,21.42
2022-07-25T00:55:13.645Z,21.44
2022-07-25T00:57:40.652Z,21.37
2022-07-25T01:00:11.283Z,21.36
2022-07-25T01:02:37.987Z,21.36
2022-07-25T01:05:06.557Z,21.30
2022-07-25T01:07:33.213Z,21.22
2022-07-25T01:10:00.323Z,21.17
2022-07-25T01:12:27.295Z,21.02
2022-07-25T01:14:54.064Z,20.94
2022-07-25T01:17:20.694Z,20.74
2022-07-25T01:19:47.336Z,20.86
2022-07-25T01:22:14.082Z,20.91
2022-07-25T01:24:40.800Z,20.75
2022-07-25T01:27:07.461Z,20.71
2022-07-25T01:29:34.224Z,20.77
2022-07-25T01:32:02.819Z,20.78
2022-07-25T01:34:29.445Z,20.77
2022-07-25T01:36:56.061Z,20.53
2022-07-25T01:39:22.695Z,20.42
2022-07-25T01:41:49.387Z,20.43
2022-07-25T01:44:16.066Z,20.46
2022-07-25T01:46:42.808Z,20.47
2022-07-25T01:49:09.701Z,20.37
2022-07-25T01:51:36.428Z,20.32
2022-07-25T01:54:03.424Z,20.33
2022-07-25T01:56:32.431Z,20.28
2022-07-25T01:58:59.899Z,20.27
2022-07-25T02:01:26.882Z,20.21
2022-07-25T02:03:53.545Z,20.10
2022-07-25T02:06:20.232Z,20.14
2022-07-25T02:08:46.871Z,20.24
2022-07-25T02:11:13.577Z,20.23
2022-07-25T02:13:40.271Z,20.11
2022-07-25T02:16:06.896Z,20.11
2022-07-25T02:18:33.543Z,19.70
2022-07-25T02:21:00.173Z,19.76
2022-07-25T02:23:26.903Z,19.94
2022-07-25T02:25:53.549Z,19.93
2022-07-25T02:28:20.302Z,19.94
2022-07-25T02:30:46.995Z,19.89
2022-07-25T02:33:13.687Z,19.88
2022-07-25T02:35:40.325Z,19.96
2022-07-25T02:38:07.168Z,19.89
2022-07-25T02:40:33.818Z,19.82
2022-07-25T02:43:00.425Z,19.70
2022-07-25T02:45:27.067Z,19.76
2022-07-25T02:47:53.916Z,19.80
2022-07-25T02:50:20.540Z,19.84
2022-07-25T02:52:47.179Z,19.70
2022-07-25T02:55:13.844Z,19.58
2022-07-25T02:57:40.550Z,19.63
2022-07-25T03:00:07.830Z,19.54
2022-07-25T03:02:34.838Z,19.52
2022-07-25T03:05:01.540Z,19.45
2022-07-25T03:07:28.240Z,19.40
2022-07-25T03:09:54.867Z,19.50
2022-07-25T03:12:21.477Z,19.57
2022-07-25T03:14:48.350Z,19.38
2022-07-25T03:17:14.956Z,19.20
2022-07-25T03:19:41.671Z,19.23
2022-07-25T03:22:08.309Z,19.56
2022-07-25T03:24:34.987Z,19.43
2022-07-25T03:27:01.729Z,19.58
2022-07-25T03:29:28.362Z,19.61
2022-07-25T03:31:55.065Z,19.43
2022-07-25T03:34:21.783Z,19.70
2022-07-25T03:36:48.400Z,19.49
2022-07-25T03:39:15.022Z,19.27
2022-07-25T03:41:41.719Z,19.22
2022-07-25T03:44:08.900Z,19.45
2022-07-25T03:46:35.891Z,19.34
2022-07-25T03:49:02.627Z,19.30
2022-07-25T03:51:29.334Z,19.19
2022-07-25T03:53:56.046Z,19.22
2022-07-25T03:56:22.676Z,19.29
2022-07-25T03:58:49.494Z,19.08
2022-07-25T04:01:16.274Z,19.07
2022-07-25T04:03:43.282Z,19.08
2022-07-25T04:06:11.132Z,19.19
2022-07-25T04:08:37.806Z,19.17
2022-07-25T04:11:04.554Z,19.21
2022-07-25T04:13:31.321Z,19.03
2022-07-25T04:15:57.979Z,19.19
2022-07-25T04:18:28.519Z,19.06
2022-07-25T04:20:55.636Z,18.99
2022-07-25T04:23:22.252Z,19.10
2022-07-25T04:25:48.957Z,19.03
2022-07-25T04:28:15.668Z,19.06
2022-07-25T04:30:42.347Z,19.11
2022-07-25T04:33:09.001Z,19.05
2022-07-25T04:35:35.705Z,19.10
2022-07-25T04:38:02.372Z,19.03
2022-07-25T04:40:29.064Z,19.04
2022-07-25T04:42:55.735Z,18.94
2022-07-25T04:45:22.601Z,18.86
2022-07-25T04:47:49.883Z,18.90
2022-07-25T04:50:18.078Z,18.96
2022-07-25T04:52:46.600Z,18.89
2022-07-25T04:55:13.296Z,18.87
2022-07-25T04:57:39.999Z,18.93
2022-07-25T05:00:08.781Z,18.99
2022-07-25T05:02:36.265Z,18.99
2022-07-25T05:05:03.928Z,18.92
2022-07-25T05:07:30.692Z,19.01
2022-07-25T05:09:57.471Z,19.01
2022-07-25T05:12:24.108Z,19.19
2022-07-25T05:14:50.738Z,19.21
2022-07-25T05:17:17.393Z,19.26
2022-07-25T05:19:44.059Z,19.43
2022-07-25T05:22:10.777Z,19.52
2022-07-25T05:24:37.709Z,19.45
2022-07-25T05:27:05.580Z,19.60
2022-07-25T05:29:32.403Z,19.61
2022-07-25T05:31:59.115Z,19.77
2022-07-25T05:34:25.839Z,19.76
2022-07-25T05:36:52.549Z,19.95
2022-07-25T05:39:19.383Z,20.15
2022-07-25T05:41:46.071Z,20.07
2022-07-25T05:44:12.721Z,20.12
2022-07-25T05:46:39.398Z,20.15
2022-07-25T05:49:06.150Z,20.30
2022-07-25T05:51:32.808Z,21.26
2022-07-25T05:53:59.590Z,21.11
2022-07-25T05:56:26.245Z,21.04
2022-07-25T05:58:52.957Z,20.98
2022-07-25T06:01:19.760Z,21.14
2022-07-25T06:03:46.412Z,21.51
2022-07-25T06:06:13.030Z,21.54
2022-07-25T06:08:39.749Z,21.46
2022-07-25T06:11:07.358Z,21.65
2022-07-25T06:13:35.502Z,21.47
2022-07-25T06:16:03.360Z,21.56
2022-07-25T06:18:30.101Z,21.57
2022-07-25T06:20:56.749Z,21.71
2022-07-25T06:23:23.395Z,22.19
2022-07-25T06:25:54.269Z,22.17
2022-07-25T06:28:20.906Z,22.55
2022-07-25T06:30:47.971Z,22.97
2022-07-25T06:33:14.665Z,22.85
2022-07-25T06:35:41.322Z,22.97
2022-07-25T06:38:07.959Z,23.35
2022-07-25T06:40:34.603Z,23.44
2022-07-25T06:43:01.293Z,23.10
2022-07-25T06:45:27.985Z,23.02
2022-07-25T06:47:54.647Z,23.45
2022-07-25T06:50:21.677Z,23.67
2022-07-25T06:52:48.327Z,23.59
2022-07-25T06:55:15.977Z,23.65
2022-07-25T06:57:43.574Z,23.81
2022-07-25T07:00:12.514Z,24.02
2022-07-25T07:02:50.180Z,24.23
2022-07-25T07:05:17.059Z,23.94
2022-07-25T07:07:47.620Z,24.07
2022-07-25T07:10:15.615Z,24.22
2022-07-25T07:12:42.260Z,24.27
2022-07-25T07:15:09.716Z,24.43
2022-07-25T07:17:36.397Z,24.55
2022-07-25T07:20:04.642Z,24.56
2022-07-25T07:22:31.304Z,24.51
2022-07-25T07:24:57.973Z,24.77
2022-07-25T07:27:24.701Z,24.81
2022-07-25T07:29:51.315Z,24.43
2022-07-25T07:32:18.428Z,24.60
2022-07-25T07:34:45.061Z,24.75
2022-07-25T07:37:11.663Z,24.69
2022-07-25T07:39:38.388Z,24.94
2022-07-25T07:42:05.111Z,25.17
2022-07-25T07:44:31.754Z,25.14
2022-07-25T07:46:58.480Z,25.29
2022-07-25T07:49:25.208Z,25.34
2022-07-25T07:51:51.887Z,25.37
2022-07-25T07:54:18.502Z,25.34
2022-07-25T07:56:45.146Z,25.41
2022-07-25T07:59:11.950Z,25.61
2022-07-25T08:01:38.696Z,25.87
2022-07-25T08:04:05.682Z,25.71
2022-07-25T08:06:32.312Z,25.84
2022-07-25T08:08:58.948Z,25.43
2022-07-25T08:11:25.594Z,25.62
2022-07-25T08:13:52.383Z,25.77
2022-07-25T08:16:19.217Z,25.59
2022-07-25T08:18:46.004Z,25.85
2022-07-25T08:21:12.613Z,26.14
2022-07-25T08:23:39.620Z,26.30
2022-07-25T08:26:07.338Z,26.07
2022-07-25T08:28:33.976Z,26.00
2022-07-25T08:31:00.796Z,26.29
2022-07-25T08:33:27.499Z,26.24
2022-07-25T08:35:55.684Z,26.56
2022-07-25T08:38:24.028Z,26.32
2022-07-25T08:40:51.390Z,26.55
2022-07-25T08:43:18.417Z,25.99
2022-07-25T08:45:50.368Z,26.14
2022-07-25T08:48:19.008Z,26.19
2022-07-25T08:50:47.384Z,26.62
2022-07-25T08:53:32.807Z,26.76
2022-07-25T08:56:00.534Z,27.12
2022-07-25T08:58:27.256Z,26.99
2022-07-25T09:00:53.922Z,27.32
2022-07-25T09:03:20.574Z,27.31
2022-07-25T09:05:47.459Z,27.46
2022-07-25T09:08:16.222Z,27.60
2022-07-25T09:10:53.476Z,27.67
2022-07-25T09:13:21.951Z,27.71
2022-07-25T09:15:51.444Z,27.82
2022-07-25T09:18:23.358Z,27.96
2022-07-25T09:20:53.500Z,27.68
2022-07-25T09:23:35.026Z,28.30
2022-07-25T09:26:10.716Z,27.94
2022-07-25T09:28:45.946Z,27.84
2022-07-25T09:31:13.683Z,27.61
2022-07-25T09:33:51.867Z,27.74
2022-07-25T09:36:18.759Z,27.69
2022-07-25T09:38:59.620Z,27.58
2022-07-25T09:41:37.206Z,27.69
2022-07-25T09:44:14.820Z,27.67
2022-07-25T09:46:41.525Z,27.60
2022-07-25T09:49:08.282Z,27.50
2022-07-25T09:51:35.274Z,27.42
2022-07-25T09:54:04.626Z,27.67
2022-07-25T09:56:32.358Z,28.07
2022-07-25T09:58:59.194Z,27.82
2022-07-25T10:01:37.103Z,27.59
2022-07-25T10:04:14.795Z,27.64
2022-07-25T10:06:57.802Z,27.81
2022-07-25T10:09:24.634Z,27.98
2022-07-25T10:12:09.639Z,28.59
2022-07-25T10:14:38.219Z,27.22
2022-07-25T10:17:06.158Z,27.56
2022-07-25T10:19:44.799Z,27.50
2022-07-25T10:22:16.093Z,27.82
2022-07-25T10:24:47.186Z,28.32
2022-07-25T10:27:21.307Z,28.49
2022-07-25T10:29:53.177Z,28.98
2022-07-25T10:32:19.848Z,28.88
2022-07-25T10:34:54.147Z,28.67
2022-07-25T10:37:28.334Z,28.10
2022-07-25T10:39:55.622Z,28.77
2022-07-25T10:42:24.082Z,28.87
2022-07-25T10:44:54.943Z,29.35
2022-07-25T10:47:24.350Z,29.28
2022-07-25T10:50:16.641Z,29.61
2022-07-25T10:52:44.589Z,29.55
2022-07-25T10:55:22.721Z,29.20
2022-07-25T10:58:16.987Z,29.20
2022-07-25T11:00:44.505Z,29.14
2022-07-25T11:03:17.561Z,29.37
2022-07-25T11:05:48.590Z,29.69
2022-07-25T11:08:21.995Z,29.75
2022-07-25T11:10:52.190Z,29.29
2022-07-25T11:13:18.968Z,29.23
2022-07-25T11:15:46.730Z,29.36
2022-07-25T11:18:13.397Z,29.43
2022-07-25T11:20:40.095Z,29.73
2022-07-25T11:23:06.790Z,29.66
2022-07-25T11:25:33.402Z,29.57
2022-07-25T11:28:01.103Z,29.31
2022-07-25T11:30:28.084Z,28.87
2022-07-25T11:32:58.847Z,29.14
2022-07-25T11:35:28.850Z,29.28
2022-07-25T11:37:56.701Z,29.59
2022-07-25T11:40:24.121Z,29.94
2022-07-25T11:42:53.426Z,29.57
2022-07-25T11:45:23.703Z,29.50
2022-07-25T11:48:11.753Z,29.78
2022-07-25T11:50:41.624Z,29.57
2022-07-25T11:53:11.102Z,30.04
2022-07-25T11:55:39.532Z,30.56
2022-07-25T11:58:06.969Z,30.92
2022-07-25T12:00:45.800Z,30.17
2022-07-25T12:03:19.501Z,30.47
2022-07-25T12:05:47.458Z,30.73
2022-07-25T12:08:19.051Z,30.25
2022-07-25T12:10:47.907Z,29.81
2022-07-25T12:13:29.644Z,29.98
2022-07-25T12:15:57.980Z,30.20
2022-07-25T12:18:24.799Z,30.09
2022-07-25T12:20:51.837Z,30.31
2022-07-25T12:23:19.033Z,30.46
2022-07-25T12:25:46.962Z,30.56
2022-07-25T12:28:14.705Z,31.03
2022-07-25T12:30:43.074Z,31.01
2022-07-25T12:33:10.590Z,31.14
2022-07-25T12:35:37.393Z,31.11
2022-07-25T12:38:04.572Z,30.77
2022-07-25T12:40:31.586Z,30.35
2022-07-25T12:42:58.432Z,30.65
2022-07-25T12:45:25.228Z,30.87
2022-07-25T12:47:51.933Z,31.13
2022-07-25T12:50:19.075Z,31.02
2022-07-25T12:52:47.099Z,31.29
2022-07-25T12:55:16.905Z,31.50
2022-07-25T12:57:44.060Z,31.05
2022-07-25T13:00:14.499Z,31.38
2022-07-25T13:02:41.469Z,31.73
2022-07-25T13:05:08.642Z,31.95
2022-07-25T13:07:35.456Z,32.24
2022-07-25T13:10:02.568Z,32.30
2022-07-25T13:12:29.261Z,32.50
2022-07-25T13:14:56.198Z,31.53
2022-07-25T13:17:27.164Z,31.66
2022-07-25T13:19:55.730Z,31.81
2022-07-25T13:22:22.471Z,31.97
2022-07-25T13:24:49.205Z,31.43
2022-07-25T13:27:18.739Z,31.16
2022-07-25T13:29:45.449Z,31.20
2022-07-25T13:32:12.186Z,31.68
2022-07-25T13:34:39.161Z,31.45
2022-07-25T13:37:05.792Z,31.40
2022-07-25T13:39:32.532Z,30.75
2022-07-25T13:41:59.171Z,31.30
2022-07-25T13:44:25.794Z,30.95
2022-07-25T13:46:52.565Z,31.76
2022-07-25T13:49:19.282Z,31.73
2022-07-25T13:51:45.957Z,32.01
2022-07-25T13:54:12.837Z,32.37
2022-07-25T13:56:39.506Z,32.49
2022-07-25T13:59:06.485Z,31.90
2022-07-25T14:01:33.298Z,32.18
2022-07-25T14:03:59.938Z,32.33
2022-07-25T14:06:26.573Z,32.52
2022-07-25T14:08:53.286Z,32.67
2022-07-25T14:11:19.993Z,32.56
2022-07-25T14:13:46.678Z,32.21
2022-07-25T14:16:14.847Z,31.76
2022-07-25T14:18:41.502Z,32.27
2022-07-25T14:21:08.205Z,31.77
2022-07-25T14:23:34.827Z,31.96
2022-07-25T14:26:01.526Z,31.67
2022-07-25T14:28:28.315Z,31.81
2022-07-25T14:30:55.051Z,31.78
2022-07-25T14:33:21.761Z,31.82
2022-07-25T14:35:48.401Z,31.39
2022-07-25T14:38:15.193Z,31.39
2022-07-25T14:40:42.116Z,31.65
2022-07-25T14:43:08.752Z,31.95
2022-07-25T14:45:35.506Z,32.34
2022-07-25T14:48:02.185Z,32.56
2022-07-25T14:50:28.843Z,32.92
2022-07-25T14:52:55.468Z,32.47
2022-07-25T14:55:22.119Z,32.20
2022-07-25T14:57:48.848Z,32.56
2022-07-25T15:00:15.728Z,32.72
2022-07-25T15:02:42.344Z,32.53
2022-07-25T15:05:09.464Z,32.84
2022-07-25T15:07:37.677Z,33.03
2022-07-25T15:10:04.750Z,33.00
2022-07-25T15:12:31.446Z,32.62
2022-07-25T15:14:58.125Z,32.68
2022-07-25T15:17:25.044Z,32.77
2022-07-25T15:19:51.791Z,33.11
2022-07-25T15:22:18.462Z,33.28
2022-07-25T15:25:17.913Z,32.78
2022-07-25T15:27:32.241Z,33.47
2022-07-25T15:29:58.877Z,33.49
2022-07-25T15:32:25.642Z,33.82
2022-07-25T15:34:52.319Z,33.58
2022-07-25T15:37:18.968Z,33.43
2022-07-25T15:39:45.578Z,32.61
2022-07-25T15:42:12.261Z,32.46
2022-07-25T15:44:38.891Z,33.38
2022-07-25T15:47:08.830Z,33.14
2022-07-25T15:49:37.106Z,33.06
2022-07-25T15:52:04.064Z,33.21
2022-07-25T15:54:30.718Z,32.73
2022-07-25T15:56:57.672Z,33.21
2022-07-25T15:59:24.396Z,33.52
2022-07-25T16:01:51.034Z,33.59
2022-07-25T16:04:17.917Z,32.76
2022-07-25T16:06:44.830Z,32.24
2022-07-25T16:09:11.584Z,32.09
2022-07-25T16:11:38.875Z,32.22
2022-07-25T16:14:05.509Z,32.65
2022-07-25T16:16:32.399Z,32.85
2022-07-25T16:18:59.081Z,32.97
2022-07-25T16:21:25.761Z,31.85
2022-07-25T16:23:52.461Z,31.95
2022-07-25T16:26:19.239Z,32.62
2022-07-25T16:28:47.051Z,33.04
2022-07-25T16:31:13.801Z,33.47
2022-07-25T16:33:40.487Z,32.99
2022-07-25T16:36:07.786Z,33.34
2022-07-25T16:38:34.520Z,34.20
2022-07-25T16:41:01.199Z,33.97
2022-07-25T16:43:27.835Z,35.30
2022-07-25T16:45:54.590Z,35.25
2022-07-25T16:48:21.365Z,35.91
2022-07-25T16:50:48.010Z,35.30
2022-07-25T16:53:14.752Z,35.25
2022-07-25T16:55:41.567Z,35.22
2022-07-25T16:58:08.212Z,34.42
2022-07-25T17:00:34.935Z,34.21
2022-07-25T17:03:01.583Z,34.36
2022-07-25T17:05:28.242Z,33.66
2022-07-25T17:07:59.436Z,33.68
2022-07-25T17:10:27.561Z,33.79
2022-07-25T17:12:54.606Z,33.59
2022-07-25T17:15:21.591Z,33.29
2022-07-25T17:17:48.331Z,32.96
2022-07-25T17:20:15.082Z,32.74
2022-07-25T17:22:41.708Z,32.56
2022-07-25T17:25:08.723Z,32.21
2022-07-25T17:27:35.603Z,32.21
2022-07-25T17:30:02.223Z,31.77
2022-07-25T17:32:30.102Z,31.96
2022-07-25T17:34:57.837Z,31.71
2022-07-25T17:37:24.990Z,31.78
2022-07-25T17:39:51.665Z,31.30
2022-07-25T17:42:18.267Z,31.57
2022-07-25T17:44:44.887Z,31.45
2022-07-25T17:47:11.606Z,31.80
2022-07-25T17:49:38.287Z,31.34
2022-07-25T17:52:05.061Z,31.51
2022-07-25T17:54:31.755Z,31.22
2022-07-25T17:56:58.388Z,30.38
2022-07-25T17:59:25.095Z,30.29
2022-07-25T18:01:51.821Z,30.21
2022-07-25T18:04:18.531Z,30.11
2022-07-25T18:06:45.171Z,30.03
2022-07-25T18:09:12.080Z,29.91
2022-07-25T18:11:38.795Z,29.61
2022-07-25T18:14:05.722Z,29.60
2022-07-25T18:16:32.937Z,29.61
2022-07-25T18:18:59.750Z,29.68
2022-07-25T18:21:26.492Z,29.61
2022-07-25T18:23:53.138Z,29.44
2022-07-25T18:26:19.907Z,29.30
2022-07-25T18:28:46.653Z,29.07
2022-07-25T18:31:13.551Z,28.90
2022-07-25T18:33:40.249Z,28.68
2022-07-25T18:36:07.707Z,28.57
2022-07-25T18:38:35.839Z,28.44
2022-07-25T18:41:27.487Z,28.38
2022-07-25T18:43:51.555Z,28.33
2022-07-25T18:46:18.634Z,28.36
2022-07-25T18:48:45.859Z,28.12
2022-07-25T18:51:12.581Z,27.94
2022-07-25T18:53:39.267Z,27.93
2022-07-25T18:56:06.263Z,27.87
2022-07-25T18:58:33.022Z,27.81
2022-07-25T19:00:59.798Z,27.71
2022-07-25T19:03:26.427Z,27.70
2022-07-25T19:05:53.093Z,27.56
2022-07-25T19:08:19.974Z,27.43
2022-07-25T19:10:46.681Z,27.35
2022-07-25T19:13:32.604Z,27.27
2022-07-25T19:16:02.167Z,27.29
2022-07-25T19:18:29.606Z,27.32
2022-07-25T19:20:56.323Z,27.29
2022-07-25T19:23:22.971Z,27.10
2022-07-25T19:25:49.665Z,27.06
2022-07-25T19:28:16.463Z,26.90
2022-07-25T19:30:43.148Z,26.86
2022-07-25T19:33:10.191Z,26.84
2022-07-25T19:35:36.953Z,26.68
2022-07-25T19:38:04.528Z,26.72
2022-07-25T19:40:32.733Z,26.69
2022-07-25T19:43:01.030Z,26.58
2022-07-25T19:45:28.031Z,26.53
2022-07-25T19:47:54.682Z,26.39
2022-07-25T19:50:21.340Z,26.34
2022-07-25T19:52:48.124Z,26.29
2022-07-25T19:55:14.760Z,26.29
2022-07-25T19:57:41.359Z,26.21
2022-07-25T20:00:08.364Z,26.23
2022-07-25T20:02:35.166Z,26.10
2022-07-25T20:05:02.019Z,26.08
2022-07-25T20:07:28.687Z,26.03
2022-07-25T20:09:55.310Z,26.02
2022-07-25T20:12:22.130Z,25.91
2022-07-25T20:14:48.785Z,25.80
2022-07-25T20:17:15.466Z,25.75
2022-07-25T20:19:42.161Z,25.69
2022-07-25T20:22:09.394Z,25.63
2022-07-25T20:24:36.139Z,25.52
2022-07-25T20:27:02.921Z,25.53
2022-07-25T20:29:29.561Z,25.51
2022-07-25T20:31:56.349Z,25.41
2022-07-25T20:34:23.020Z,25.50
2022-07-25T20:36:49.731Z,25.41
2022-07-25T20:39:16.426Z,25.30
2022-07-25T20:41:43.187Z,25.26
2022-07-25T20:44:11.453Z,25.18
2022-07-25T20:46:38.236Z,25.16
2022-07-25T20:49:07.019Z,25.16
2022-07-25T20:51:36.282Z,25.05
2022-07-25T20:54:04.210Z,24.96
2022-07-25T20:56:30.831Z,24.85
2022-07-25T20:58:57.470Z,24.82
2022-07-25T21:01:24.173Z,24.82
2022-07-25T21:03:51.033Z,24.72
2022-07-25T21:06:17.698Z,24.69
2022-07-25T21:08:44.416Z,24.68
2022-07-25T21:11:11.025Z,24.66
2022-07-25T21:13:37.665Z,24.53
2022-07-25T21:16:05.126Z,24.52
2022-07-25T21:18:31.768Z,24.45
2022-07-25T21:20:58.409Z,24.42
2022-07-25T21:23:25.210Z,24.35
2022-07-25T21:25:52.103Z,24.32
2022-07-25T21:28:18.747Z,24.22
2022-07-25T21:30:45.643Z,24.23
2022-07-25T21:33:14.710Z,24.05
2022-07-25T21:35:50.441Z,24.10
2022-07-25T21:38:26.702Z,24.14
2022-07-25T21:40:54.641Z,24.06
2022-07-25T21:43:21.319Z,23.95
2022-07-25T21:45:48.038Z,23.93
2022-07-25T21:48:15.010Z,24.00
2022-07-25T21:50:43.553Z,23.94
2022-07-25T21:53:13.596Z,23.84
2022-07-25T21:55:40.504Z,23.74
2022-07-25T21:58:08.255Z,23.60
2022-07-25T22:00:38.846Z,23.53
2022-07-25T22:03:10.954Z,23.52
2022-07-25T22:05:37.583Z,23.57
2022-07-25T22:08:04.551Z,23.50
2022-07-25T22:10:31.203Z,23.47
2022-07-25T22:12:57.835Z,23.49
2022-07-25T22:15:24.476Z,23.31
2022-07-25T22:17:51.183Z,23.18
2022-07-25T22:20:19.677Z,23.18
2022-07-25T22:22:49.655Z,23.09
2022-07-25T22:25:16.964Z,23.01
2022-07-25T22:27:44.007Z,22.88
2022-07-25T22:30:16.161Z,22.87
2022-07-25T22:32:46.141Z,22.88
2022-07-25T22:35:12.952Z,22.81
2022-07-25T22:37:39.594Z,22.69
2022-07-25T22:40:06.795Z,22.69
2022-07-25T22:42:33.431Z,22.74
2022-07-25T22:45:00.267Z,22.64
2022-07-25T22:47:26.998Z,22.69
2022-07-25T22:49:53.616Z,22.79
2022-07-25T22:52:20.260Z,22.73
2022-07-25T22:54:47.052Z,22.78
2022-07-25T22:57:13.687Z,22.57
2022-07-25T22:59:40.304Z,22.71
2022-07-25T23:02:07.052Z,22.75
2022-07-25T23:04:33.757Z,22.69
2022-07-25T23:07:00.442Z,22.60
2022-07-25T23:09:36.405Z,22.46
2022-07-25T23:12:04.598Z,22.36
2022-07-25T23:14:31.262Z,22.38
2022-07-25T23:16:57.977Z,22.59
2022-07-25T23:19:24.661Z,22.67
2022-07-25T23:21:51.301Z,22.66
2022-07-25T23:24:17.958Z,22.59
2022-07-25T23:26:44.590Z,22.28
2022-07-25T23:29:11.452Z,21.93
2022-07-25T23:31:38.231Z,22.08
2022-07-25T23:34:05.024Z,21.95
2022-07-25T23:36:31.655Z,22.14
2022-07-25T23:38:58.283Z,22.29
2022-07-25T23:41:24.973Z,22.20
2022-07-25T23:43:59.072Z,22.23
2022-07-25T23:46:29.293Z,22.17
2022-07-25T23:48:58.438Z,22.13
2022-07-25T23:51:25.213Z,21.91
2022-07-25T23:53:51.824Z,21.88
2022-07-25T23:56:20.989Z,21.61
2022-07-25T23:58:48.340Z,21.74
